San Gennaro — IIOT2 — position and weather

sailwx.info

Track history (hours):
 
Tides and Currents Weather Stations Pressure Air Temp Water Temp Dewpoint Dewpoint Depression Visibility Wind Speed Wind Dir Waves Ship Positions

San Gennaro

Last reported at 2015-Jul-06 10:20 UTC. Time now 2015-Jul-06 19:57 UTC.
Position N 40°51' E 014°16'.

Length 27 m; draft 5.2 m.

Type: Tug. MMSI: 247295700.

Date/timePositionNaut miles runAvg speedWind from/ knotsBaromVisibWave heightAir tempDewpointWater temp
2015-Jul-06 10:20N 40°51' E 014°16'0 0.0
2015-Jul-06 09:29N 40°51' E 014°16'0 0.0
2015-Jul-06 08:30N 40°51' E 014°16'0 0.0
2015-Jul-05 14:23N 40°51' E 014°16'0 0.0
2015-Jul-05 13:33N 40°51' E 014°16'2 1.5
2015-Jul-05 12:33N 40°50' E 014°18'2 1.5
2015-Jul-05 11:32N 40°51' E 014°16'0 0.0
2015-Jul-05 10:32N 40°51' E 014°16'0 0.0
2015-Jul-05 08:33N 40°51' E 014°16'0 0.0
2015-Jul-05 07:33N 40°51' E 014°16'1 0.7
2015-Jul-05 06:34N 40°50' E 014°16'1 0.7
2015-Jul-05 05:34N 40°51' E 014°16'0 0.0
2015-Jul-05 04:16N 40°51' E 014°16'0 0.0
2015-Jul-05 00:20N 40°51' E 014°16'0 0.0
2015-Jul-04 23:33N 40°51' E 014°16'0 0.0
2015-Jul-04 16:27N 40°51' E 014°16'0 0.0
2015-Jul-04 15:31N 40°51' E 014°16'0 0.0
2015-Jul-04 14:24N 40°51' E 014°16'0 0.0
2015-Jul-04 13:34N 40°51' E 014°16'0 0.0
2015-Jul-04 12:34N 40°51' E 014°16'0 0.0
2015-Jul-04 11:33N 40°51' E 014°16'2 2.4
2015-Jul-04 10:34N 40°48' E 014°16'2 1.2
2015-Jul-04 08:34N 40°51' E 014°16'0 0.0
2015-Jul-04 04:30N 40°51' E 014°16'0 0.0
2015-Jul-03 21:25N 40°51' E 014°16'0 0.0
2015-Jul-03 15:33N 40°51' E 014°16'0 0.0
2015-Jul-03 14:29N 40°51' E 014°16'3 1.4
2015-Jul-03 12:33N 40°49' E 014°19'6 6.1
2015-Jul-03 11:34N 40°45' E 014°25'3 3.1
2015-Jul-03 10:33N 40°47' E 014°21'6 2.8
2015-Jul-03 08:31N 40°51' E 014°16'0 0.0
2015-Jul-03 07:33N 40°51' E 014°16'0 0.0
2015-Jul-03 05:25N 40°51' E 014°16'0 0.0
2015-Jul-03 02:29N 40°51' E 014°16'1 0.1
2015-Jul-02 15:33N 40°50' E 014°17'9 7.9
2015-Jul-02 14:28N 40°45' E 014°27'1 0.8
2015-Jul-02 13:33N 40°44' E 014°27'6 5.7
2015-Jul-02 12:33N 40°47' E 014°20'5 4.6
2015-Jul-02 11:34N 40°51' E 014°16'1 0.3
2015-Jul-02 07:33N 40°50' E 014°18'1 0.8
2015-Jul-02 06:31N 40°50' E 014°16'0 0.0
2015-Jul-01 13:32N 40°50' E 014°17'1 0.9
2015-Jul-01 12:27N 40°51' E 014°16'0 0.0
2015-Jul-01 11:33N 40°51' E 014°16'0 0.0
2015-Jul-01 10:27N 40°51' E 014°16'0 0.0
2015-Jul-01 09:34N 40°51' E 014°16'0 0.0
2015-Jul-01 08:34N 40°51' E 014°16'0 0.0
2015-Jul-01 04:34N 40°51' E 014°16'0 0.0
2015-Jul-01 03:33N 40°51' E 014°16'0 0.0
2015-Jul-01 02:33N 40°51' E 014°16'0 0.0
2015-Jul-01 01:33N 40°51' E 014°16'0 0.0
2015-Jul-01 00:33N 40°51' E 014°16'0 0.0
2015-Jun-30 23:34N 40°51' E 014°16'0 0.0
2015-Jun-30 22:33N 40°51' E 014°16'0 0.0
2015-Jun-30 21:30N 40°51' E 014°16'0 0.0
2015-Jun-30 20:30N 40°51' E 014°16'0 0.0
2015-Jun-30 18:30N 40°51' E 014°16'0 0.0
2015-Jun-30 14:11N 40°51' E 014°16'0 0.0
2015-Jun-30 12:31N 40°51' E 014°16'0 0.2
2015-Jun-30 10:15N 40°50' E 014°16'1 1.3
2015-Jun-30 09:33N 40°50' E 014°18'1 1.1
2015-Jun-30 08:24N 40°51' E 014°16'1 0.0
2015-Jun-29 14:32N 40°50' E 014°17'1 0.0
2015-Jun-28 20:33N 40°50' E 014°17'1 1.0
2015-Jun-28 19:33N 40°49' E 014°18'0 0.1
2015-Jun-28 18:33N 40°49' E 014°18'2 0.8
2015-Jun-28 16:07N 40°51' E 014°16'1 0.8
2015-Jun-28 15:11N 40°50' E 014°17'0 0.4
2015-Jun-28 14:33N 40°50' E 014°17'2 1.5
2015-Jun-28 13:33N 40°50' E 014°18'2 0.5
2015-Jun-28 09:16N 40°51' E 014°16'0 0.3
2015-Jun-28 08:17N 40°50' E 014°16'0 0.4
2015-Jun-28 07:32N 40°50' E 014°16'0 0.2
2015-Jun-28 06:08N 40°50' E 014°17'  
Track history (hours):
 
Tides and Currents Weather Stations Pressure Air Temp Water Temp Dewpoint Dewpoint Depression Visibility Wind Speed Wind Dir Waves Ship Positions

San Gennaro

Last reported at 2015-Jul-06 10:20 UTC. Time now 2015-Jul-06 19:57 UTC.
Position N 40°51' E 014°16'.

Length 27 m; draft 5.2 m.

Type: Tug. MMSI: 247295700.

Date/timePositionNaut miles runAvg speedWind from/ knotsBaromVisibWave heightAir tempDewpointWater temp
2015-Jul-06 10:20N 40°51' E 014°16'0 0.0
2015-Jul-06 09:29N 40°51' E 014°16'0 0.0
2015-Jul-06 08:30N 40°51' E 014°16'0 0.0
2015-Jul-05 14:23N 40°51' E 014°16'0 0.0
2015-Jul-05 13:33N 40°51' E 014°16'2 1.5
2015-Jul-05 12:33N 40°50' E 014°18'2 1.5
2015-Jul-05 11:32N 40°51' E 014°16'0 0.0
2015-Jul-05 10:32N 40°51' E 014°16'0 0.0
2015-Jul-05 08:33N 40°51' E 014°16'0 0.0
2015-Jul-05 07:33N 40°51' E 014°16'1 0.7
2015-Jul-05 06:34N 40°50' E 014°16'1 0.7
2015-Jul-05 05:34N 40°51' E 014°16'0 0.0
2015-Jul-05 04:16N 40°51' E 014°16'0 0.0
2015-Jul-05 00:20N 40°51' E 014°16'0 0.0
2015-Jul-04 23:33N 40°51' E 014°16'0 0.0
2015-Jul-04 16:27N 40°51' E 014°16'0 0.0
2015-Jul-04 15:31N 40°51' E 014°16'0 0.0
2015-Jul-04 14:24N 40°51' E 014°16'0 0.0
2015-Jul-04 13:34N 40°51' E 014°16'0 0.0
2015-Jul-04 12:34N 40°51' E 014°16'0 0.0
2015-Jul-04 11:33N 40°51' E 014°16'2 2.4
2015-Jul-04 10:34N 40°48' E 014°16'2 1.2
2015-Jul-04 08:34N 40°51' E 014°16'0 0.0
2015-Jul-04 04:30N 40°51' E 014°16'0 0.0
2015-Jul-03 21:25N 40°51' E 014°16'0 0.0
2015-Jul-03 15:33N 40°51' E 014°16'0 0.0
2015-Jul-03 14:29N 40°51' E 014°16'3 1.4
2015-Jul-03 12:33N 40°49' E 014°19'6 6.1
2015-Jul-03 11:34N 40°45' E 014°25'3 3.1
2015-Jul-03 10:33N 40°47' E 014°21'6 2.8
2015-Jul-03 08:31N 40°51' E 014°16'0 0.0
2015-Jul-03 07:33N 40°51' E 014°16'0 0.0
2015-Jul-03 05:25N 40°51' E 014°16'0 0.0
2015-Jul-03 02:29N 40°51' E 014°16'1 0.1
2015-Jul-02 15:33N 40°50' E 014°17'9 7.9
2015-Jul-02 14:28N 40°45' E 014°27'1 0.8
2015-Jul-02 13:33N 40°44' E 014°27'6 5.7
2015-Jul-02 12:33N 40°47' E 014°20'5 4.6
2015-Jul-02 11:34N 40°51' E 014°16'1 0.3
2015-Jul-02 07:33N 40°50' E 014°18'1 0.8
2015-Jul-02 06:31N 40°50' E 014°16'0 0.0
2015-Jul-01 13:32N 40°50' E 014°17'1 0.9
2015-Jul-01 12:27N 40°51' E 014°16'0 0.0
2015-Jul-01 11:33N 40°51' E 014°16'0 0.0
2015-Jul-01 10:27N 40°51' E 014°16'0 0.0
2015-Jul-01 09:34N 40°51' E 014°16'0 0.0
2015-Jul-01 08:34N 40°51' E 014°16'0 0.0
2015-Jul-01 04:34N 40°51' E 014°16'0 0.0
2015-Jul-01 03:33N 40°51' E 014°16'0 0.0
2015-Jul-01 02:33N 40°51' E 014°16'0 0.0
2015-Jul-01 01:33N 40°51' E 014°16'0 0.0
2015-Jul-01 00:33N 40°51' E 014°16'0 0.0
2015-Jun-30 23:34N 40°51' E 014°16'0 0.0
2015-Jun-30 22:33N 40°51' E 014°16'0 0.0
2015-Jun-30 21:30N 40°51' E 014°16'0 0.0
2015-Jun-30 20:30N 40°51' E 014°16'0 0.0
2015-Jun-30 18:30N 40°51' E 014°16'0 0.0
2015-Jun-30 14:11N 40°51' E 014°16'0 0.0
2015-Jun-30 12:31N 40°51' E 014°16'0 0.2
2015-Jun-30 10:15N 40°50' E 014°16'1 1.3
2015-Jun-30 09:33N 40°50' E 014°18'1 1.1
2015-Jun-30 08:24N 40°51' E 014°16'1 0.0
2015-Jun-29 14:32N 40°50' E 014°17'1 0.0
2015-Jun-28 20:33N 40°50' E 014°17'1 1.0
2015-Jun-28 19:33N 40°49' E 014°18'0 0.1
2015-Jun-28 18:33N 40°49' E 014°18'2 0.8
2015-Jun-28 16:07N 40°51' E 014°16'1 0.8
2015-Jun-28 15:11N 40°50' E 014°17'0 0.4
2015-Jun-28 14:33N 40°50' E 014°17'2 1.5
2015-Jun-28 13:33N 40°50' E 014°18'2 0.5
2015-Jun-28 09:16N 40°51' E 014°16'0 0.3
2015-Jun-28 08:17N 40°50' E 014°16'0 0.4
2015-Jun-28 07:32N 40°50' E 014°16'0 0.2
2015-Jun-28 06:08N 40°50' E 014°17'  

Dump ship's entire track history